Time;durP1;ratioP1;P1;durP2;ratioP2;P2;SDS_P1;SDS_P2;PMS_P1;PMS_P2;Temp;Humidity;BMP_temperature;BMP_pressure;BME280_temperature;BME280_humidity;BME280_pressure;Samples;Min_cycle;Max_cycle;Signal;HPM_P1;HPM_P2
2022/03/31 00:00:47;;;;;;;28.75;15.00;;;7.40;99.90;;;;;;5041706;28;20048;-85
2022/03/31 00:03:15;;;;;;;26.10;16.05;;;7.40;99.90;;;;;;5033322;28;20028;-86
2022/03/31 00:05:41;;;;;;;28.70;15.95;;;7.40;99.90;;;;;;5038164;28;20040;-85
2022/03/31 00:08:09;;;;;;;29.80;14.23;;;7.50;99.90;;;;;;5036049;28;20053;-85
2022/03/31 00:10:39;;;;;;;34.65;16.45;;;7.30;99.90;;;;;;5041979;28;20034;-84
2022/03/31 00:13:07;;;;;;;26.40;15.93;;;7.20;99.90;;;;;;5037579;28;20010;-86
2022/03/31 00:15:33;;;;;;;27.33;15.38;;;7.30;99.90;;;;;;5035565;28;20370;-87
2022/03/31 00:18:01;;;;;;;29.73;16.08;;;7.40;99.90;;;;;;5039344;28;20488;-85
2022/03/31 00:20:28;;;;;;;25.75;15.95;;;7.50;99.90;;;;;;5038023;28;20040;-94
2022/03/31 00:22:54;;;;;;;27.52;14.23;;;7.50;99.90;;;;;;5053405;28;20346;-85
2022/03/31 00:25:20;;;;;;;29.05;15.63;;;7.40;99.90;;;;;;5038398;28;20048;-86
2022/03/31 00:27:46;;;;;;;33.10;15.32;;;7.40;99.90;;;;;;5039932;28;20450;-85
2022/03/31 00:30:14;;;;;;;32.95;15.95;;;7.50;99.90;;;;;;5040930;28;20112;-85
2022/03/31 00:32:40;;;;;;;30.65;15.75;;;7.20;99.90;;;;;;5033285;28;20037;-93
2022/03/31 00:35:08;;;;;;;24.98;15.10;;;7.20;99.90;;;;;;5053072;28;20037;-85
2022/03/31 00:37:34;;;;;;;29.73;15.52;;;7.20;99.90;;;;;;5042799;28;20060;-85
2022/03/31 00:40:00;;;;;;;28.48;16.88;;;7.40;99.90;;;;;;5041191;28;20052;-86
2022/03/31 00:42:26;;;;;;;32.72;15.48;;;7.40;99.90;;;;;;5039698;28;20107;-85
2022/03/31 00:44:52;;;;;;;27.77;14.32;;;7.40;99.90;;;;;;5057675;28;20061;-89
2022/03/31 00:47:18;;;;;;;30.95;17.58;;;7.40;99.90;;;;;;5043619;28;20031;-85
2022/03/31 00:49:44;;;;;;;29.23;16.88;;;7.40;99.90;;;;;;5038981;28;20055;-85
2022/03/31 00:52:11;;;;;;;32.58;17.10;;;7.40;99.90;;;;;;5039412;28;20030;-86
2022/03/31 00:54:38;;;;;;;31.05;15.73;;;7.30;99.90;;;;;;5028794;28;20029;-85
2022/03/31 00:57:06;;;;;;;33.40;17.42;;;7.30;99.90;;;;;;5040346;28;20029;-95
2022/03/31 00:59:32;;;;;;;33.60;16.30;;;7.30;99.90;;;;;;5046619;28;20013;-85
2022/03/31 01:01:59;;;;;;;32.65;17.65;;;7.40;99.90;;;;;;5050176;28;20440;-85
2022/03/31 01:04:28;;;;;;;33.05;15.65;;;7.20;99.90;;;;;;5033250;28;20053;-86
2022/03/31 01:06:53;;;;;;;32.53;15.85;;;7.20;99.90;;;;;;5047020;28;20025;-85
2022/03/31 01:09:19;;;;;;;33.10;17.20;;;7.30;99.90;;;;;;5037446;28;20087;-85
2022/03/31 01:11:45;;;;;;;32.20;17.83;;;7.30;99.90;;;;;;5034214;28;20589;-85
2022/03/31 01:14:11;;;;;;;42.28;21.05;;;7.30;99.90;;;;;;5035382;28;20041;-84
2022/03/31 01:16:37;;;;;;;43.97;22.02;;;7.20;99.90;;;;;;5050890;28;20120;-85
2022/03/31 01:19:08;;;;;;;48.80;24.30;;;7.10;99.90;;;;;;5047601;28;20041;-85
2022/03/31 01:21:38;;;;;;;51.58;24.48;;;7.10;99.90;;;;;;5034443;28;20041;-85
2022/03/31 01:24:09;;;;;;;61.55;31.13;;;7.20;99.90;;;;;;5040129;28;20028;-85
2022/03/31 01:26:36;;;;;;;54.58;26.17;;;7.20;99.90;;;;;;5032167;28;20030;-84
2022/03/31 01:29:02;;;;;;;57.22;28.75;;;7.20;99.90;;;;;;5033477;28;20041;-96
2022/03/31 01:31:28;;;;;;;53.30;26.23;;;7.30;99.90;;;;;;5032602;28;20048;-85
2022/03/31 01:33:54;;;;;;;57.67;28.38;;;7.40;99.90;;;;;;5041691;28;20104;-85
2022/03/31 01:36:20;;;;;;;58.67;30.10;;;7.20;99.90;;;;;;5056712;28;20361;-85
2022/03/31 01:38:47;;;;;;;52.05;28.25;;;7.00;99.90;;;;;;5044751;28;20480;-86
2022/03/31 01:41:12;;;;;;;53.25;26.60;;;7.00;99.90;;;;;;5028041;28;20087;-86
2022/03/31 01:43:38;;;;;;;60.30;29.83;;;7.00;99.90;;;;;;5040102;28;20479;-85
2022/03/31 01:46:07;;;;;;;60.22;29.15;;;7.10;99.90;;;;;;5039559;28;20061;-84
2022/03/31 01:48:33;;;;;;;60.03;28.85;;;7.10;99.90;;;;;;5034200;28;20021;-85
2022/03/31 01:50:59;;;;;;;57.05;29.52;;;7.00;99.90;;;;;;5041764;28;20062;-85
2022/03/31 01:53:25;;;;;;;59.65;29.10;;;7.10;99.90;;;;;;5050968;28;20029;-86
2022/03/31 01:55:50;;;;;;;52.38;27.00;;;7.10;99.90;;;;;;5044898;28;20020;-85
2022/03/31 01:58:16;;;;;;;63.38;29.80;;;7.00;99.90;;;;;;5044496;28;20532;-86
2022/03/31 02:00:42;;;;;;;64.55;29.50;;;7.00;99.90;;;;;;5041799;28;20037;-85
2022/03/31 02:03:07;;;;;;;60.75;29.02;;;6.80;99.90;;;;;;5059631;28;20021;-85
2022/03/31 02:05:33;;;;;;;62.22;29.35;;;6.90;99.90;;;;;;5025069;28;20418;-85
2022/03/31 02:07:58;;;;;;;56.88;27.30;;;6.90;99.90;;;;;;5043036;28;20035;-85
2022/03/31 02:10:27;;;;;;;57.38;28.90;;;7.00;99.90;;;;;;5044275;28;20033;-85
2022/03/31 02:12:54;;;;;;;63.42;28.75;;;6.80;99.90;;;;;;5036442;28;20033;-85
2022/03/31 02:15:21;;;;;;;63.30;28.13;;;6.70;99.90;;;;;;5047773;28;20025;-85
2022/03/31 02:17:48;;;;;;;62.03;27.35;;;6.80;99.90;;;;;;5035585;28;20355;-85
2022/03/31 02:20:13;;;;;;;58.67;27.58;;;6.90;99.90;;;;;;5044519;28;20132;-85
2022/03/31 02:22:39;;;;;;;59.15;26.88;;;6.90;99.90;;;;;;5042305;28;20083;-87
2022/03/31 02:25:08;;;;;;;56.55;26.25;;;6.90;99.90;;;;;;5043262;28;20026;-86
2022/03/31 02:27:34;;;;;;;65.25;28.40;;;6.80;99.90;;;;;;5032314;28;20025;-85
2022/03/31 02:30:00;;;;;;;56.70;27.27;;;6.80;99.90;;;;;;5030244;28;20025;-85
2022/03/31 02:32:26;;;;;;;52.08;28.23;;;6.90;99.90;;;;;;5044573;28;20512;-85
2022/03/31 02:34:52;;;;;;;62.00;28.55;;;6.80;99.90;;;;;;5034704;28;20044;-85
2022/03/31 02:37:17;;;;;;;58.42;26.35;;;6.70;99.90;;;;;;5011056;28;20033;-84
2022/03/31 02:39:43;;;;;;;62.63;27.00;;;6.80;99.90;;;;;;5034821;28;20029;-86
2022/03/31 02:42:09;;;;;;;60.42;29.45;;;6.80;99.90;;;;;;5042372;28;20037;-86
2022/03/31 02:44:34;;;;;;;56.78;26.90;;;6.90;99.90;;;;;;5050780;28;20037;-86
2022/03/31 02:47:00;;;;;;;59.55;28.55;;;7.00;99.90;;;;;;5035561;28;20036;-85
2022/03/31 02:49:25;;;;;;;67.65;29.17;;;7.00;99.90;;;;;;5035020;28;20072;-85
2022/03/31 02:51:51;;;;;;;58.53;28.42;;;7.00;99.90;;;;;;5041175;28;20083;-85
2022/03/31 02:57:01;;;;;;;65.70;30.25;;;6.90;99.90;;;;;;5041006;28;20060;-86
2022/03/31 02:59:26;;;;;;;57.63;28.65;;;6.90;99.90;;;;;;5034105;28;20049;-86
2022/03/31 03:01:52;;;;;;;63.25;28.17;;;6.90;99.90;;;;;;5039445;28;20033;-85
2022/03/31 03:04:18;;;;;;;58.35;28.48;;;6.90;99.90;;;;;;5029060;28;20477;-86
2022/03/31 03:06:44;;;;;;;64.97;30.10;;;7.00;99.90;;;;;;5041565;28;20031;-86
2022/03/31 03:09:09;;;;;;;62.45;29.15;;;6.90;99.90;;;;;;5036241;28;20036;-85
2022/03/31 03:11:35;;;;;;;65.28;30.55;;;6.70;99.90;;;;;;5029392;28;20124;-85
2022/03/31 03:14:02;;;;;;;67.28;26.23;;;6.70;99.90;;;;;;5036659;28;20040;-85
2022/03/31 03:16:27;;;;;;;66.22;28.65;;;6.90;99.90;;;;;;5032126;28;20498;-85
2022/03/31 03:18:53;;;;;;;63.13;30.45;;;6.90;99.90;;;;;;5041635;28;20097;-85
2022/03/31 03:21:20;;;;;;;63.97;28.38;;;6.90;99.90;;;;;;5042814;28;20060;-85
2022/03/31 03:23:46;;;;;;;70.88;27.92;;;6.90;99.90;;;;;;5020216;28;20457;-85
2022/03/31 03:26:12;;;;;;;62.22;28.27;;;7.00;99.90;;;;;;5042392;28;20029;-87
2022/03/31 03:28:38;;;;;;;65.43;30.70;;;6.90;99.90;;;;;;5032844;28;20052;-87
2022/03/31 03:31:05;;;;;;;67.93;29.08;;;6.90;99.90;;;;;;5041677;28;20466;-84
2022/03/31 03:33:32;;;;;;;69.93;29.13;;;6.90;99.90;;;;;;5040400;28;20128;-85
2022/03/31 03:35:59;;;;;;;74.47;30.15;;;6.90;99.90;;;;;;5043634;28;20020;-85
2022/03/31 03:38:25;;;;;;;86.97;32.58;;;6.80;99.90;;;;;;5065002;28;20028;-86
2022/03/31 03:40:51;;;;;;;66.65;29.80;;;6.70;99.90;;;;;;5033425;28;20373;-86
2022/03/31 03:43:17;;;;;;;91.85;29.48;;;6.80;99.90;;;;;;5034795;28;20389;-85
2022/03/31 03:45:43;;;;;;;85.72;34.03;;;6.80;99.90;;;;;;5039984;28;20025;-86
2022/03/31 03:48:11;;;;;;;166.00;39.42;;;6.70;99.90;;;;;;5031989;28;20036;-85
2022/03/31 03:50:38;;;;;;;79.00;31.98;;;6.70;99.90;;;;;;5021206;28;20083;-85
2022/03/31 03:53:05;;;;;;;75.63;31.88;;;6.80;99.90;;;;;;5029145;28;20022;-86
2022/03/31 03:55:31;;;;;;;105.10;34.03;;;6.80;99.90;;;;;;5035450;28;20034;-93
2022/03/31 03:57:57;;;;;;;85.03;29.13;;;6.80;99.90;;;;;;5038474;28;20056;-86
2022/03/31 04:00:23;;;;;;;104.80;30.50;;;6.60;99.90;;;;;;5049753;28;20572;-85
2022/03/31 04:02:49;;;;;;;103.97;33.53;;;6.60;99.90;;;;;;5032720;28;20393;-85
2022/03/31 04:05:14;;;;;;;70.05;30.63;;;6.60;99.90;;;;;;5015251;28;20030;-85
2022/03/31 04:07:41;;;;;;;80.68;31.48;;;6.70;99.90;;;;;;5013444;28;20025;-90
2022/03/31 04:10:09;;;;;;;171.48;39.20;;;6.70;99.90;;;;;;5033600;28;20430;-85
2022/03/31 04:12:35;;;;;;;163.68;33.67;;;6.70;99.90;;;;;;5027320;28;20026;-90
2022/03/31 04:15:06;;;;;;;178.77;38.00;;;6.60;99.90;;;;;;5033343;28;20031;-85
2022/03/31 04:17:32;;;;;;;102.03;33.97;;;6.60;99.90;;;;;;5034623;28;20028;-85
2022/03/31 04:19:58;;;;;;;82.00;31.08;;;6.60;99.90;;;;;;5034016;28;20041;-85
2022/03/31 04:22:24;;;;;;;150.90;36.95;;;6.50;99.90;;;;;;5039187;28;20488;-86
2022/03/31 04:24:49;;;;;;;91.78;32.90;;;6.50;99.90;;;;;;5037037;28;20034;-85
2022/03/31 04:27:15;;;;;;;111.07;33.00;;;6.60;99.90;;;;;;5034150;28;20112;-85
2022/03/31 04:29:41;;;;;;;125.85;30.90;;;6.60;99.90;;;;;;5033237;28;20025;-85
2022/03/31 04:32:07;;;;;;;91.90;33.80;;;6.60;99.90;;;;;;5023349;28;20045;-85
2022/03/31 04:34:34;;;;;;;174.50;37.38;;;6.50;99.90;;;;;;5034004;28;20029;-86
2022/03/31 04:37:00;;;;;;;80.15;31.23;;;6.50;99.90;;;;;;5045858;28;20044;-85
2022/03/31 04:39:25;;;;;;;201.93;38.80;;;6.50;99.90;;;;;;5035781;28;20025;-86
2022/03/31 04:41:52;;;;;;;101.30;33.22;;;6.50;99.90;;;;;;5026186;28;20033;-86
2022/03/31 04:44:17;;;;;;;124.72;33.97;;;6.30;99.90;;;;;;5035644;28;20152;-85
2022/03/31 04:46:45;;;;;;;148.57;34.30;;;6.40;99.90;;;;;;5048940;28;20112;-85
2022/03/31 04:49:11;;;;;;;126.68;37.50;;;6.40;99.90;;;;;;5033529;28;20022;-85
2022/03/31 04:51:37;;;;;;;187.55;38.85;;;6.40;99.90;;;;;;5048928;28;20404;-85
2022/03/31 04:54:03;;;;;;;121.22;35.80;;;6.40;99.90;;;;;;5048390;28;20028;-85
2022/03/31 04:56:29;;;;;;;417.23;56.15;;;6.40;99.90;;;;;;5042430;28;20025;-85
2022/03/31 04:58:55;;;;;;;145.25;35.40;;;6.40;99.90;;;;;;5048461;28;20498;-84
2022/03/31 05:01:23;;;;;;;210.15;39.90;;;6.40;99.90;;;;;;5042960;28;20060;-85
2022/03/31 05:03:51;;;;;;;111.72;34.80;;;6.40;99.90;;;;;;5017251;28;20501;-85
2022/03/31 05:06:17;;;;;;;119.22;35.45;;;6.40;99.90;;;;;;5033096;28;20022;-85
2022/03/31 05:08:43;;;;;;;348.60;51.45;;;6.50;99.90;;;;;;5046351;28;20028;-84
2022/03/31 05:11:09;;;;;;;153.60;32.40;;;6.40;99.90;;;;;;5065311;28;20116;-85
2022/03/31 05:13:34;;;;;;;165.90;38.92;;;6.30;99.90;;;;;;5033840;28;20037;-84
2022/03/31 05:16:00;;;;;;;206.52;37.08;;;6.50;99.90;;;;;;5032413;28;20033;-84
2022/03/31 05:18:26;;;;;;;153.38;34.22;;;6.30;99.90;;;;;;5032318;28;20026;-85
2022/03/31 05:20:52;;;;;;;147.30;32.80;;;6.40;99.90;;;;;;5017117;28;20033;-84
2022/03/31 05:23:18;;;;;;;116.07;35.05;;;6.40;99.90;;;;;;5032056;28;20026;-85
2022/03/31 05:25:44;;;;;;;191.02;37.05;;;6.30;99.90;;;;;;5034141;28;20055;-85
2022/03/31 05:28:11;;;;;;;145.73;38.10;;;6.30;99.90;;;;;;5033400;28;20079;-85
2022/03/31 05:30:37;;;;;;;172.02;37.30;;;6.20;99.90;;;;;;5038474;28;20046;-85
2022/03/31 05:33:03;;;;;;;296.67;44.60;;;6.20;99.90;;;;;;5035976;28;20453;-85
2022/03/31 05:35:29;;;;;;;193.80;40.40;;;6.20;99.90;;;;;;5036636;28;20108;-86
2022/03/31 05:37:56;;;;;;;202.02;39.63;;;6.30;99.90;;;;;;5034861;28;20373;-87
2022/03/31 05:40:24;;;;;;;130.27;35.92;;;6.40;99.90;;;;;;5037136;28;20115;-88
2022/03/31 05:42:50;;;;;;;177.70;34.88;;;6.40;99.90;;;;;;5037606;28;20036;-84
2022/03/31 05:45:16;;;;;;;254.10;45.13;;;6.40;99.90;;;;;;5031279;28;20032;-85
2022/03/31 05:47:43;;;;;;;208.40;38.83;;;6.40;99.90;;;;;;5035047;28;20025;-84
2022/03/31 05:50:10;;;;;;;155.63;37.58;;;6.40;99.90;;;;;;5051844;28;20036;-85
2022/03/31 05:52:38;;;;;;;182.13;36.65;;;6.50;99.90;;;;;;5052709;28;20481;-85
2022/03/31 05:55:06;;;;;;;224.70;40.97;;;6.50;99.90;;;;;;5043167;28;20022;-86
2022/03/31 05:57:33;;;;;;;299.45;46.20;;;6.50;99.90;;;;;;5050760;28;20033;-85
2022/03/31 05:59:59;;;;;;;336.33;47.50;;;6.40;99.90;;;;;;5034013;28;20039;-86
2022/03/31 06:02:25;;;;;;;130.65;33.58;;;6.30;99.90;;;;;;5033773;28;20116;-91
2022/03/31 06:04:51;;;;;;;183.13;35.45;;;6.40;99.90;;;;;;5038199;28;20037;-84
2022/03/31 06:07:17;;;;;;;300.50;43.03;;;6.40;99.90;;;;;;5033532;28;20029;-84
2022/03/31 06:09:42;;;;;;;195.10;37.88;;;6.40;99.90;;;;;;5036883;28;20025;-85
2022/03/31 06:12:09;;;;;;;262.95;46.38;;;6.50;99.90;;;;;;5017308;28;20405;-85
2022/03/31 06:14:35;;;;;;;188.48;35.67;;;6.40;99.90;;;;;;5036386;28;20107;-85
2022/03/31 06:17:01;;;;;;;238.30;39.65;;;6.40;99.90;;;;;;5025695;28;20084;-85
2022/03/31 06:19:26;;;;;;;185.02;39.05;;;6.40;99.90;;;;;;5033293;28;20098;-86
2022/03/31 06:21:52;;;;;;;363.58;54.10;;;6.40;99.90;;;;;;5062972;28;20033;-85
2022/03/31 06:24:18;;;;;;;354.17;51.13;;;6.20;99.90;;;;;;5050767;28;20120;-85
2022/03/31 06:26:43;;;;;;;225.90;41.05;;;6.20;99.90;;;;;;5016974;28;20116;-86
2022/03/31 06:29:09;;;;;;;285.30;45.80;;;6.20;99.90;;;;;;5034633;28;20485;-86
2022/03/31 06:31:37;;;;;;;135.48;37.65;;;6.20;99.90;;;;;;5032827;28;20076;-85
2022/03/31 06:34:04;;;;;;;183.57;39.35;;;6.30;99.90;;;;;;5014037;28;20041;-86
2022/03/31 06:36:30;;;;;;;285.88;52.30;;;6.30;99.90;;;;;;5040894;28;20068;-86
2022/03/31 06:38:56;;;;;;;266.40;43.45;;;6.20;99.90;;;;;;5019882;28;20485;-85
2022/03/31 06:41:22;;;;;;;326.88;41.72;;;6.30;99.90;;;;;;5021558;28;20452;-85
2022/03/31 06:43:48;;;;;;;106.57;33.00;;;6.30;99.90;;;;;;5037706;28;20125;-85
2022/03/31 06:46:15;;;;;;;134.40;36.85;;;6.30;99.90;;;;;;5023077;28;20099;-85
2022/03/31 06:48:46;;;;;;;300.92;43.78;;;6.30;99.90;;;;;;5043381;28;20026;-86
2022/03/31 06:51:13;;;;;;;205.52;37.58;;;6.40;99.90;;;;;;5030635;28;20041;-85
2022/03/31 06:53:40;;;;;;;264.15;41.60;;;6.40;99.90;;;;;;5032813;28;20034;-86
2022/03/31 06:56:08;;;;;;;171.48;38.60;;;6.40;99.90;;;;;;5030726;28;20025;-85
2022/03/31 06:58:34;;;;;;;336.90;53.70;;;6.50;99.90;;;;;;5033408;28;20021;-85
2022/03/31 07:01:01;;;;;;;168.02;36.08;;;6.50;99.90;;;;;;5031948;28;20072;-85
2022/03/31 07:03:27;;;;;;;114.70;34.58;;;6.60;99.90;;;;;;5033555;28;20029;-85
2022/03/31 07:05:55;;;;;;;170.88;38.13;;;6.70;99.90;;;;;;5041878;28;20025;-85
2022/03/31 07:08:21;;;;;;;132.48;35.47;;;6.60;99.90;;;;;;5052171;28;20403;-86
2022/03/31 07:10:47;;;;;;;104.25;32.88;;;6.70;99.90;;;;;;5014866;28;20187;-85
2022/03/31 07:13:14;;;;;;;95.78;33.60;;;6.70;99.90;;;;;;5037248;28;20025;-85
2022/03/31 07:15:40;;;;;;;248.07;39.70;;;6.90;99.90;;;;;;5021172;28;20055;-85
2022/03/31 07:18:06;;;;;;;261.63;43.72;;;6.80;99.90;;;;;;5034705;28;20021;-84
2022/03/31 07:20:33;;;;;;;146.55;38.33;;;6.90;99.90;;;;;;5015755;28;20433;-85
2022/03/31 07:22:59;;;;;;;177.93;40.40;;;6.90;99.90;;;;;;5045649;28;20049;-85
2022/03/31 07:25:26;;;;;;;192.18;37.88;;;6.90;99.90;;;;;;5025211;28;20028;-85
2022/03/31 07:27:52;;;;;;;189.07;39.90;;;7.00;99.90;;;;;;5054823;28;20021;-85
2022/03/31 07:30:19;;;;;;;150.15;37.00;;;7.10;99.90;;;;;;5043429;28;20029;-86
2022/03/31 07:32:47;;;;;;;277.70;39.30;;;7.20;99.90;;;;;;5042951;28;20119;-85
2022/03/31 07:35:13;;;;;;;218.05;36.03;;;7.10;99.90;;;;;;5032784;28;20029;-86
2022/03/31 07:37:39;;;;;;;318.67;41.03;;;7.00;99.90;;;;;;5058920;28;20032;-85
2022/03/31 07:40:05;;;;;;;237.50;40.83;;;7.10;99.90;;;;;;5050112;28;20021;-85
2022/03/31 07:42:31;;;;;;;282.10;40.42;;;7.00;99.90;;;;;;5006264;28;20057;-86
2022/03/31 07:44:57;;;;;;;180.45;37.97;;;7.00;99.90;;;;;;5037926;28;20499;-85
2022/03/31 07:47:22;;;;;;;112.90;36.47;;;7.10;99.90;;;;;;5017513;28;20030;-85
2022/03/31 07:49:49;;;;;;;167.57;37.53;;;7.20;99.90;;;;;;5020401;28;20021;-86
2022/03/31 07:52:15;;;;;;;217.50;42.30;;;7.30;99.90;;;;;;5026898;28;20025;-85
2022/03/31 07:54:42;;;;;;;234.80;41.92;;;7.40;99.90;;;;;;5065593;28;20374;-85
2022/03/31 07:57:08;;;;;;;130.48;36.10;;;7.40;99.90;;;;;;5033660;28;20098;-85
2022/03/31 07:59:35;;;;;;;247.90;44.80;;;7.50;99.90;;;;;;5033698;28;20519;-86
2022/03/31 08:02:02;;;;;;;213.60;39.92;;;7.50;99.90;;;;;;5034578;28;20120;-85
2022/03/31 08:04:28;;;;;;;154.38;35.85;;;7.50;99.90;;;;;;5029120;28;20032;-85
2022/03/31 08:06:55;;;;;;;160.73;36.38;;;7.40;99.90;;;;;;5017860;28;20033;-85
2022/03/31 08:09:21;;;;;;;176.32;42.30;;;7.20;99.90;;;;;;5041732;28;20100;-85
2022/03/31 08:11:49;;;;;;;146.32;44.08;;;7.40;99.90;;;;;;5029517;28;20378;-84
2022/03/31 08:14:17;;;;;;;333.20;53.53;;;7.60;99.90;;;;;;5021928;28;20481;-85
2022/03/31 08:16:47;;;;;;;105.72;37.55;;;7.60;99.90;;;;;;5043141;28;20021;-85
2022/03/31 08:19:14;;;;;;;160.55;38.30;;;7.70;99.90;;;;;;5048844;28;20563;-85
2022/03/31 08:21:42;;;;;;;157.35;43.17;;;8.00;99.90;;;;;;5057959;28;20033;-85
2022/03/31 08:24:08;;;;;;;99.50;38.25;;;8.00;99.90;;;;;;5043991;28;20043;-86
2022/03/31 08:26:34;;;;;;;113.93;35.55;;;8.10;99.90;;;;;;5030657;28;20021;-85
2022/03/31 08:29:00;;;;;;;116.57;41.45;;;8.20;99.90;;;;;;5041057;28;20017;-85
2022/03/31 08:31:27;;;;;;;131.57;41.83;;;8.10;99.90;;;;;;5068339;28;20052;-85
2022/03/31 08:33:53;;;;;;;132.10;37.42;;;7.90;99.90;;;;;;5041325;28;20461;-85
2022/03/31 08:36:19;;;;;;;118.82;40.13;;;8.10;99.90;;;;;;5040265;28;20026;-85
2022/03/31 08:38:45;;;;;;;112.97;36.45;;;8.20;99.90;;;;;;5035897;28;20496;-85
2022/03/31 08:41:13;;;;;;;99.25;31.98;;;8.30;99.90;;;;;;5026806;28;20029;-85
2022/03/31 08:43:41;;;;;;;153.25;39.85;;;8.20;99.90;;;;;;5035106;28;20484;-86
2022/03/31 08:46:09;;;;;;;104.80;35.40;;;8.00;99.90;;;;;;5035259;28;20466;-85
2022/03/31 08:48:36;;;;;;;243.18;50.17;;;8.00;99.90;;;;;;5042532;28;20032;-86
2022/03/31 08:51:02;;;;;;;119.00;41.97;;;8.20;99.90;;;;;;5045392;28;20037;-85
2022/03/31 08:53:27;;;;;;;95.05;37.97;;;8.30;99.90;;;;;;5040704;28;20036;-85
2022/03/31 08:55:53;;;;;;;95.05;35.97;;;8.10;99.90;;;;;;5022168;28;20125;-86
2022/03/31 08:58:19;;;;;;;87.22;31.90;;;8.10;99.90;;;;;;5021779;28;20037;-86
2022/03/31 09:00:45;;;;;;;78.53;32.08;;;8.30;99.90;;;;;;5019593;28;20041;-85
2022/03/31 09:03:11;;;;;;;84.35;34.80;;;8.40;99.90;;;;;;5037321;28;20026;-85
2022/03/31 09:05:42;;;;;;;83.72;31.52;;;8.40;99.90;;;;;;5011052;28;20075;-85
2022/03/31 09:08:10;;;;;;;76.60;32.95;;;8.40;99.90;;;;;;5032153;28;20347;-85
2022/03/31 09:10:40;;;;;;;75.43;28.92;;;8.50;99.90;;;;;;5051808;28;20037;-85
2022/03/31 09:13:18;;;;;;;94.32;34.15;;;8.50;99.90;;;;;;5053064;28;20060;-85
2022/03/31 09:15:58;;;;;;;83.45;34.70;;;8.60;99.90;;;;;;5057005;28;20017;-86
2022/03/31 09:18:26;;;;;;;65.68;28.45;;;8.40;99.90;;;;;;5039766;28;20017;-85
2022/03/31 09:20:55;;;;;;;70.20;32.50;;;8.40;99.90;;;;;;5044381;28;20065;-87
2022/03/31 09:23:24;;;;;;;82.18;32.70;;;8.30;99.90;;;;;;5037577;28;20017;-85
2022/03/31 09:25:51;;;;;;;75.50;32.58;;;8.60;99.90;;;;;;5035430;28;20014;-85
2022/03/31 09:28:19;;;;;;;70.63;33.08;;;8.80;99.90;;;;;;5036563;28;20116;-85
2022/03/31 09:30:56;;;;;;;80.57;34.63;;;8.90;99.90;;;;;;5033495;28;20044;-86
2022/03/31 09:33:29;;;;;;;64.78;28.88;;;8.90;99.90;;;;;;5037501;28;20025;-85
2022/03/31 09:36:17;;;;;;;60.85;26.30;;;9.00;99.90;;;;;;5044063;28;20486;-85
2022/03/31 09:39:05;;;;;;;58.80;25.98;;;9.10;99.90;;;;;;5038102;28;20032;-85
2022/03/31 09:41:38;;;;;;;53.33;25.83;;;9.20;99.90;;;;;;5036179;28;20029;-84
2022/03/31 09:44:13;;;;;;;67.68;29.33;;;9.20;99.90;;;;;;5041503;28;20472;-85
2022/03/31 09:46:40;;;;;;;59.15;24.25;;;9.30;99.90;;;;;;5037260;28;20056;-86
2022/03/31 09:49:16;;;;;;;61.75;25.38;;;8.90;99.90;;;;;;5035792;28;20021;-85
2022/03/31 09:51:44;;;;;;;60.72;25.98;;;9.10;99.90;;;;;;5039730;28;20048;-85
2022/03/31 09:54:10;;;;;;;62.28;27.45;;;9.30;99.90;;;;;;5025568;28;20038;-85
2022/03/31 09:56:40;;;;;;;58.30;25.98;;;9.40;99.90;;;;;;5034660;28;20160;-86
2022/03/31 09:59:16;;;;;;;60.88;27.05;;;9.30;99.90;;;;;;5045339;28;20063;-85
2022/03/31 10:01:43;;;;;;;64.47;32.15;;;9.10;99.90;;;;;;5039132;28;20100;-85
2022/03/31 10:04:11;;;;;;;67.07;30.00;;;9.20;99.90;;;;;;5047752;28;20525;-85
2022/03/31 10:06:39;;;;;;;57.47;23.48;;;10.00;99.90;;;;;;5036552;28;20033;-86
2022/03/31 10:09:06;;;;;;;53.42;21.88;;;10.10;99.90;;;;;;5056774;28;20025;-85
2022/03/31 10:11:36;;;;;;;47.47;21.88;;;10.00;99.90;;;;;;5038016;28;20037;-85
2022/03/31 10:14:17;;;;;;;58.83;25.73;;;10.50;99.90;;;;;;5016831;28;20033;-86
2022/03/31 10:16:48;;;;;;;52.13;24.17;;;10.70;99.90;;;;;;5033823;28;20025;-86
2022/03/31 10:19:32;;;;;;;52.65;21.98;;;10.20;99.90;;;;;;5034042;28;20358;-86
2022/03/31 10:22:05;;;;;;;38.05;17.77;;;10.80;99.90;;;;;;5036278;28;20040;-86
2022/03/31 10:24:45;;;;;;;41.90;20.30;;;10.90;99.90;;;;;;5049383;28;20442;-85
2022/03/31 10:27:25;;;;;;;44.75;18.48;;;10.60;98.30;;;;;;5055334;28;20032;-85
2022/03/31 10:29:51;;;;;;;48.33;20.17;;;10.60;99.90;;;;;;5037871;28;20048;-85
2022/03/31 10:32:24;;;;;;;51.03;20.50;;;10.50;99.90;;;;;;5044608;28;20073;-86
2022/03/31 10:34:53;;;;;;;46.05;18.42;;;10.50;99.90;;;;;;5054589;28;20021;-86
2022/03/31 10:37:37;;;;;;;49.85;22.10;;;10.50;99.90;;;;;;5052902;28;20064;-85
2022/03/31 10:40:09;;;;;;;42.55;20.13;;;10.30;99.90;;;;;;5046173;28;20029;-86
2022/03/31 10:42:36;;;;;;;51.17;21.15;;;10.30;99.90;;;;;;5047583;28;20037;-85
2022/03/31 10:45:20;;;;;;;45.08;20.83;;;10.20;99.90;;;;;;5050738;28;20501;-86
2022/03/31 10:47:46;;;;;;;51.95;20.02;;;10.50;99.90;;;;;;5051562;28;20505;-85
2022/03/31 10:50:28;;;;;;;44.22;20.00;;;10.50;99.90;;;;;;5017935;28;20029;-86
2022/03/31 10:53:03;;;;;;;48.95;19.35;;;10.90;99.90;;;;;;5034811;28;20025;-85
2022/03/31 10:55:49;;;;;;;47.38;18.05;;;11.10;99.90;;;;;;5051470;28;20036;-86
2022/03/31 10:58:21;;;;;;;43.35;20.00;;;11.10;99.90;;;;;;5058843;28;20132;-86
2022/03/31 11:00:48;;;;;;;40.58;18.35;;;11.00;99.90;;;;;;5053515;28;20059;-85
2022/03/31 11:03:16;;;;;;;40.78;20.17;;;10.70;99.90;;;;;;5054645;28;20017;-86
2022/03/31 11:05:42;;;;;;;43.92;19.33;;;10.80;99.90;;;;;;5048984;28;20017;-85
2022/03/31 11:08:08;;;;;;;41.88;21.20;;;10.90;99.90;;;;;;5035928;28;20541;-86
2022/03/31 11:10:42;;;;;;;39.85;18.08;;;11.30;99.90;;;;;;5031140;28;20461;-86
2022/03/31 11:13:08;;;;;;;34.70;17.90;;;11.50;98.40;;;;;;5042134;28;20112;-86
2022/03/31 11:15:34;;;;;;;36.38;17.08;;;11.00;99.90;;;;;;5070308;28;20033;-85
2022/03/31 11:18:00;;;;;;;35.28;16.35;;;11.50;98.00;;;;;;5038968;28;20038;-84
2022/03/31 11:20:27;;;;;;;36.22;17.80;;;11.80;97.70;;;;;;5034986;28;20386;-84
2022/03/31 11:23:00;;;;;;;32.63;16.23;;;11.60;97.60;;;;;;5046414;28;20120;-85
2022/03/31 11:25:27;;;;;;;36.92;16.25;;;11.50;99.40;;;;;;5033913;28;20105;-84
2022/03/31 11:27:53;;;;;;;37.47;17.73;;;11.80;95.90;;;;;;5050215;28;20030;-86
2022/03/31 11:30:24;;;;;;;34.97;16.52;;;11.90;96.90;;;;;;5033305;28;20091;-86
2022/03/31 11:32:57;;;;;;;39.25;17.45;;;11.60;96.60;;;;;;5034434;28;20041;-87
2022/03/31 11:35:26;;;;;;;37.25;18.88;;;11.80;97.00;;;;;;5030383;28;20058;-86
2022/03/31 11:37:57;;;;;;;38.55;16.75;;;11.30;99.90;;;;;;5015069;28;20029;-87
2022/03/31 11:40:24;;;;;;;40.10;17.63;;;11.60;97.50;;;;;;5026747;28;20029;-86
2022/03/31 11:42:51;;;;;;;35.40;16.63;;;12.00;96.40;;;;;;5045047;28;20037;-86
2022/03/31 11:45:33;;;;;;;35.88;15.90;;;12.00;93.90;;;;;;5003249;28;20025;-88
2022/03/31 11:48:06;;;;;;;32.22;17.50;;;12.20;92.30;;;;;;5037359;28;20413;-84
2022/03/31 11:50:34;;;;;;;30.38;15.07;;;12.70;91.70;;;;;;5033187;28;20455;-86
2022/03/31 11:53:00;;;;;;;31.30;14.27;;;12.50;94.00;;;;;;5051062;28;20029;-87
2022/03/31 11:55:27;;;;;;;34.17;14.88;;;12.20;90.80;;;;;;5034576;28;20462;-89
2022/03/31 11:57:57;;;;;;;27.00;15.48;;;12.80;92.40;;;;;;5036553;28;20030;-86
2022/03/31 12:00:28;;;;;;;28.92;15.27;;;14.10;88.90;;;;;;5044441;28;20354;-87
2022/03/31 12:03:09;;;;;;;31.67;15.95;;;14.40;80.00;;;;;;5017211;28;20083;-86
2022/03/31 12:05:35;;;;;;;32.22;16.17;;;13.80;78.30;;;;;;5034719;28;20421;-86
2022/03/31 12:08:02;;;;;;;35.88;16.35;;;13.60;80.00;;;;;;5034676;28;20026;-86
2022/03/31 12:10:31;;;;;;;26.25;14.10;;;13.10;83.80;;;;;;5033140;28;20029;-86
2022/03/31 12:13:00;;;;;;;30.33;14.50;;;13.30;89.70;;;;;;5063413;28;20350;-87
2022/03/31 12:15:28;;;;;;;32.10;15.20;;;14.60;75.30;;;;;;5008653;28;20034;-86
2022/03/31 12:18:00;;;;;;;23.63;13.48;;;15.40;70.20;;;;;;5013819;28;20026;-86
2022/03/31 12:20:30;;;;;;;28.48;13.90;;;15.50;64.60;;;;;;5028442;28;20050;-90
2022/03/31 12:22:56;;;;;;;30.23;14.05;;;14.50;67.10;;;;;;5015688;28;20512;-91
2022/03/31 12:25:36;;;;;;;26.48;14.43;;;13.20;80.20;;;;;;5018177;28;20117;-86
2022/03/31 12:28:05;;;;;;;27.60;14.88;;;13.10;79.80;;;;;;5036008;28;20056;-86
2022/03/31 12:30:44;;;;;;;29.30;13.93;;;12.80;81.70;;;;;;5038429;28;20041;-86
2022/03/31 12:33:42;;;;;;;32.85;16.33;;;13.40;83.60;;;;;;5036372;28;20060;-86
2022/03/31 12:36:08;;;;;;;26.00;15.13;;;13.80;82.00;;;;;;5029115;28;20033;-86